Time;durP1;ratioP1;P1;durP2;ratioP2;P2;SDS_P1;SDS_P2;PMS_P1;PMS_P2;Temp;Humidity;BMP_temperature;BMP_pressure;BME280_temperature;BME280_humidity;BME280_pressure;Samples;Min_cycle;Max_cycle;Signal;HPM_P1;HPM_P2
2021/04/16 00:00:23;;;;;;;5.20;4.70;;;2.60;78.80;;;;;;6200421;28;20070;-78
2021/04/16 00:03:28;;;;;;;5.03;4.53;;;2.70;78.60;;;;;;6199664;28;20089;-78
2021/04/16 00:06:30;;;;;;;5.37;4.70;;;2.80;78.60;;;;;;6221734;28;20050;-78
2021/04/16 00:09:31;;;;;;;5.03;4.00;;;2.70;78.40;;;;;;6224147;28;20549;-78
2021/04/16 00:12:32;;;;;;;5.97;4.63;;;2.70;78.70;;;;;;6222521;28;20136;-78
2021/04/16 00:15:37;;;;;;;5.03;4.07;;;2.70;79.00;;;;;;6223966;28;20078;-78
2021/04/16 00:18:39;;;;;;;4.03;3.57;;;2.60;79.10;;;;;;6224197;28;20504;-78
2021/04/16 00:21:41;;;;;;;5.93;4.60;;;2.50;79.60;;;;;;6223030;28;20483;-78
2021/04/16 00:24:42;;;;;;;5.57;4.23;;;2.50;79.80;;;;;;6223290;28;20046;-78
2021/04/16 00:27:44;;;;;;;7.47;5.27;;;2.40;80.20;;;;;;6222930;28;20069;-78
2021/04/16 00:30:49;;;;;;;5.73;5.07;;;2.40;80.40;;;;;;6222655;28;20141;-78
2021/04/16 00:33:51;;;;;;;6.80;5.87;;;2.40;80.20;;;;;;6223311;28;20045;-78
2021/04/16 00:36:54;;;;;;;6.73;4.70;;;2.40;79.90;;;;;;6223250;28;20049;-77
2021/04/16 00:39:56;;;;;;;5.33;4.83;;;2.40;79.80;;;;;;6223229;28;20475;-78
2021/04/16 00:42:59;;;;;;;7.10;4.13;;;2.30;79.80;;;;;;6224658;28;20049;-77
2021/04/16 00:46:16;;;;;;;6.27;4.20;;;2.30;80.30;;;;;;6222921;28;20072;-78
2021/04/16 00:49:22;;;;;;;6.10;4.37;;;2.30;80.80;;;;;;6222787;28;20089;-78
2021/04/16 00:52:28;;;;;;;4.27;3.70;;;2.20;81.00;;;;;;6221954;28;20134;-78
2021/04/16 00:55:30;;;;;;;10.17;3.83;;;2.20;81.10;;;;;;6222751;28;20533;-78
2021/04/16 00:58:33;;;;;;;6.97;4.53;;;2.20;81.30;;;;;;6223219;28;20054;-78
2021/04/16 01:01:34;;;;;;;5.43;4.90;;;2.10;81.30;;;;;;6222360;28;20049;-79
2021/04/16 01:04:37;;;;;;;8.43;4.53;;;2.10;81.30;;;;;;6226758;28;20053;-78
2021/04/16 01:07:38;;;;;;;6.67;4.47;;;2.00;81.60;;;;;;6225996;28;20053;-78
2021/04/16 01:10:39;;;;;;;8.40;3.90;;;2.00;82.00;;;;;;6226404;28;20084;-78
2021/04/16 01:13:44;;;;;;;5.00;4.50;;;1.90;82.40;;;;;;6226666;28;20464;-78
2021/04/16 01:16:46;;;;;;;9.53;4.07;;;1.90;82.20;;;;;;6225575;28;20054;-78
2021/04/16 01:19:56;;;;;;;4.27;3.47;;;1.90;82.30;;;;;;6226441;28;20065;-78
2021/04/16 01:23:05;;;;;;;5.73;4.83;;;2.00;82.40;;;;;;6224415;28;20052;-77
2021/04/16 01:26:09;;;;;;;5.97;4.10;;;2.00;82.10;;;;;;6221839;28;20080;-77
2021/04/16 01:29:11;;;;;;;6.17;5.10;;;2.00;81.90;;;;;;6222879;28;20180;-78
2021/04/16 01:32:19;;;;;;;7.37;5.47;;;1.90;81.90;;;;;;6222750;28;20121;-77
2021/04/16 01:35:24;;;;;;;8.10;5.30;;;1.90;82.20;;;;;;6221918;28;20065;-77
2021/04/16 01:38:26;;;;;;;4.47;4.07;;;1.80;82.50;;;;;;6223274;28;20068;-78
2021/04/16 01:41:30;;;;;;;6.77;6.03;;;1.80;82.80;;;;;;6221705;28;20176;-78
2021/04/16 01:44:31;;;;;;;4.37;3.83;;;1.80;83.20;;;;;;6221772;28;20077;-77
2021/04/16 01:47:34;;;;;;;6.00;5.30;;;1.80;83.60;;;;;;6222709;28;20049;-78
2021/04/16 01:50:35;;;;;;;7.50;4.97;;;1.70;83.60;;;;;;6222559;28;20054;-77
2021/04/16 01:53:36;;;;;;;4.27;3.70;;;1.70;83.80;;;;;;6221298;28;20073;-77
2021/04/16 01:56:40;;;;;;;5.27;3.30;;;1.70;83.80;;;;;;6222445;28;20056;-76
2021/04/16 01:59:44;;;;;;;5.43;4.43;;;1.60;83.90;;;;;;6222727;28;20042;-78
2021/04/16 02:02:46;;;;;;;5.83;4.03;;;1.60;84.10;;;;;;6220819;28;20574;-77
2021/04/16 02:05:47;;;;;;;7.97;4.73;;;1.50;84.30;;;;;;6221610;28;20081;-77
2021/04/16 02:08:49;;;;;;;5.53;4.00;;;1.40;84.50;;;;;;6221928;28;20074;-78
2021/04/16 02:11:52;;;;;;;5.93;5.40;;;1.30;84.90;;;;;;6223862;28;20539;-77
2021/04/16 02:14:54;;;;;;;5.07;3.70;;;1.20;85.30;;;;;;6226724;28;20077;-78
2021/04/16 02:17:56;;;;;;;4.77;4.37;;;1.20;85.80;;;;;;6226581;28;20042;-77
2021/04/16 02:20:57;;;;;;;5.93;4.60;;;1.20;85.90;;;;;;6225700;28;20046;-77
2021/04/16 02:24:00;;;;;;;6.27;5.17;;;1.20;86.30;;;;;;6226144;28;20105;-78
2021/04/16 02:27:03;;;;;;;5.73;4.27;;;1.10;86.60;;;;;;6229269;23;20534;-77
2021/04/16 02:30:06;;;;;;;5.83;5.33;;;1.00;86.90;;;;;;6201941;28;20056;-76
2021/04/16 02:33:08;;;;;;;4.80;4.40;;;1.00;87.10;;;;;;6201653;28;20043;-76
2021/04/16 02:36:10;;;;;;;4.73;3.70;;;1.00;87.30;;;;;;6203362;28;20148;-75
2021/04/16 02:39:11;;;;;;;6.53;5.20;;;1.00;87.60;;;;;;6203327;28;20133;-76
2021/04/16 02:42:14;;;;;;;6.90;5.00;;;1.00;87.80;;;;;;6201256;28;20066;-76
2021/04/16 02:45:16;;;;;;;5.53;4.53;;;1.00;88.00;;;;;;6201755;28;20128;-76
2021/04/16 02:48:18;;;;;;;6.17;4.00;;;0.90;88.10;;;;;;6201709;28;20121;-76
2021/04/16 02:51:19;;;;;;;4.57;4.10;;;0.90;88.30;;;;;;6201959;28;20065;-76
2021/04/16 02:54:21;;;;;;;6.97;6.13;;;0.90;88.70;;;;;;6202751;28;20120;-77
2021/04/16 02:57:24;;;;;;;5.03;4.03;;;0.90;89.30;;;;;;6204728;28;20125;-77
2021/04/16 03:00:28;;;;;;;5.87;4.67;;;0.90;89.50;;;;;;6206850;28;20050;-78
2021/04/16 03:03:29;;;;;;;5.53;4.37;;;0.80;89.00;;;;;;6205616;28;20077;-77
2021/04/16 03:06:31;;;;;;;4.07;3.67;;;0.90;89.50;;;;;;6205958;28;20180;-77
2021/04/16 03:09:32;;;;;;;5.03;3.70;;;0.80;89.40;;;;;;6209562;28;20073;-78
2021/04/16 03:12:34;;;;;;;6.57;4.37;;;0.80;89.50;;;;;;6228844;28;20118;-77
2021/04/16 03:15:36;;;;;;;4.13;3.70;;;0.80;89.90;;;;;;6229568;28;20061;-78
2021/04/16 03:18:37;;;;;;;6.23;4.20;;;0.70;90.00;;;;;;6230496;28;20041;-77
2021/04/16 03:21:39;;;;;;;5.97;4.20;;;0.70;90.10;;;;;;6226240;28;20045;-78
2021/04/16 03:24:40;;;;;;;7.87;5.60;;;0.60;90.50;;;;;;6231197;28;20045;-77
2021/04/16 03:27:42;;;;;;;6.47;4.33;;;0.60;90.50;;;;;;6230515;28;20052;-77
2021/04/16 03:30:44;;;;;;;4.13;3.73;;;0.50;90.90;;;;;;6229200;28;20054;-78
2021/04/16 03:33:45;;;;;;;4.73;4.33;;;0.50;90.80;;;;;;6207182;28;20121;-77
2021/04/16 03:36:47;;;;;;;6.17;5.07;;;0.50;90.90;;;;;;6207038;28;20508;-78
2021/04/16 03:39:48;;;;;;;4.40;4.07;;;0.50;91.00;;;;;;6202788;28;20062;-77
2021/04/16 03:42:50;;;;;;;4.60;3.90;;;0.50;91.00;;;;;;6202615;28;20085;-77
2021/04/16 03:45:51;;;;;;;8.83;5.00;;;0.50;91.10;;;;;;6202084;28;20070;-78
2021/04/16 03:48:53;;;;;;;7.20;5.27;;;0.50;91.20;;;;;;6202741;28;20440;-79
2021/04/16 03:51:56;;;;;;;7.17;5.33;;;0.50;91.10;;;;;;6202226;28;20042;-78
2021/04/16 03:54:57;;;;;;;5.77;4.33;;;0.50;91.10;;;;;;6203468;28;20137;-78
2021/04/16 03:58:00;;;;;;;7.40;4.57;;;0.50;91.30;;;;;;6204390;28;20073;-79
2021/04/16 04:01:01;;;;;;;7.67;4.80;;;0.40;91.50;;;;;;6206124;28;20046;-78
2021/04/16 04:04:02;;;;;;;7.87;5.43;;;0.40;91.50;;;;;;6202276;28;20121;-77
2021/04/16 04:07:04;;;;;;;5.27;4.47;;;0.30;91.70;;;;;;6202015;28;20081;-78
2021/04/16 04:10:06;;;;;;;5.43;4.93;;;0.30;91.90;;;;;;6200980;28;20128;-77
2021/04/16 04:13:10;;;;;;;35.57;12.83;;;0.20;92.00;;;;;;6200524;28;20558;-77
2021/04/16 04:16:12;;;;;;;10.00;8.27;;;0.20;93.00;;;;;;6200394;28;20066;-77
2021/04/16 04:19:13;;;;;;;6.07;5.47;;;0.60;94.70;;;;;;6201046;28;20058;-77
2021/04/16 04:22:14;;;;;;;6.30;4.97;;;0.50;94.10;;;;;;6200443;28;20074;-78
2021/04/16 04:25:18;;;;;;;8.87;5.93;;;0.50;93.70;;;;;;6200288;28;20050;-77
2021/04/16 04:28:21;;;;;;;4.70;4.30;;;0.40;93.50;;;;;;6200634;28;20069;-77
2021/04/16 04:31:22;;;;;;;6.13;5.33;;;0.40;93.50;;;;;;6199408;28;20522;-77
2021/04/16 04:34:27;;;;;;;5.00;4.37;;;0.30;93.30;;;;;;6200525;28;20120;-77
2021/04/16 04:37:28;;;;;;;9.80;5.13;;;0.30;93.30;;;;;;6199351;28;20074;-77
2021/04/16 04:40:29;;;;;;;6.10;5.50;;;0.20;93.30;;;;;;6199977;28;20116;-77
2021/04/16 04:43:31;;;;;;;8.33;4.33;;;0.20;93.30;;;;;;6199679;28;20053;-77
2021/04/16 04:46:33;;;;;;;7.10;5.37;;;0.20;93.30;;;;;;6200463;28;20078;-78
2021/04/16 04:49:34;;;;;;;7.70;5.13;;;0.10;93.20;;;;;;6199031;28;20129;-77
2021/04/16 04:52:37;;;;;;;5.27;4.67;;;0.10;93.30;;;;;;6198694;28;20125;-77
2021/04/16 04:55:38;;;;;;;5.83;5.30;;;0.10;93.20;;;;;;6198915;28;20046;-77
2021/04/16 04:58:40;;;;;;;8.83;6.00;;;0.20;93.20;;;;;;6199181;28;20772;-77
2021/04/16 05:01:42;;;;;;;6.07;5.47;;;0.20;93.00;;;;;;6198466;28;20131;-77
2021/04/16 05:04:43;;;;;;;9.87;5.27;;;0.30;92.70;;;;;;6198995;28;20086;-77
2021/04/16 05:07:44;;;;;;;9.10;4.73;;;0.30;92.60;;;;;;6198743;28;20049;-77
2021/04/16 05:10:46;;;;;;;8.47;5.80;;;0.30;92.40;;;;;;6199487;28;20054;-77
2021/04/16 05:13:52;;;;;;;10.43;5.80;;;0.50;92.50;;;;;;6198567;28;20064;-77
2021/04/16 05:16:54;;;;;;;9.17;6.17;;;0.60;92.40;;;;;;6200127;28;20081;-77
2021/04/16 05:19:55;;;;;;;11.10;5.93;;;0.70;92.30;;;;;;6200042;28;20066;-77
2021/04/16 05:22:58;;;;;;;10.77;5.87;;;0.80;92.20;;;;;;6201019;28;20063;-77
2021/04/16 05:26:00;;;;;;;11.37;5.30;;;1.00;92.10;;;;;;6200645;28;20082;-75
2021/04/16 05:29:04;;;;;;;7.30;4.73;;;1.20;91.80;;;;;;6199228;28;20150;-77
2021/04/16 05:32:08;;;;;;;20.60;7.57;;;1.40;91.50;;;;;;6201306;28;20137;-76
2021/04/16 05:35:15;;;;;;;11.73;6.73;;;1.60;91.40;;;;;;6204618;28;20112;-77
2021/04/16 05:38:19;;;;;;;12.87;5.77;;;1.70;91.20;;;;;;6203556;28;20054;-77
2021/04/16 05:41:24;;;;;;;10.27;5.40;;;1.90;91.10;;;;;;6201193;28;20054;-76
2021/04/16 05:44:31;;;;;;;8.50;5.80;;;2.10;90.80;;;;;;6204343;28;20555;-77
2021/04/16 05:47:42;;;;;;;10.35;4.85;;;2.20;90.50;;;;;;6207417;28;20054;-76
2021/04/16 05:50:45;;;;;;;5.83;5.17;;;2.40;90.10;;;;;;6209718;28;20054;-76
2021/04/16 05:53:54;;;;;;;9.77;5.87;;;2.60;89.50;;;;;;6207624;28;20054;-77
2021/04/16 05:56:58;;;;;;;6.77;5.87;;;2.70;89.10;;;;;;6208668;28;20046;-77
2021/04/16 06:00:07;;;;;;;29.60;18.80;;;2.90;89.10;;;;;;6210229;28;20065;-77
2021/04/16 06:03:12;;;;;;;11.77;9.77;;;3.10;89.80;;;;;;6207736;28;20548;-77
2021/04/16 06:06:17;;;;;;;7.63;5.30;;;3.30;89.60;;;;;;6197523;28;20074;-77
2021/04/16 06:09:22;;;;;;;6.50;5.67;;;3.40;88.90;;;;;;6208327;28;20054;-76
2021/04/16 06:12:28;;;;;;;8.03;4.57;;;3.70;88.70;;;;;;6208702;28;20058;-76
2021/04/16 06:15:32;;;;;;;5.20;4.10;;;3.80;86.80;;;;;;6177662;28;20047;-78
2021/04/16 06:18:35;;;;;;;7.23;4.30;;;3.90;85.20;;;;;;6200598;28;20543;-77
2021/04/16 06:21:37;;;;;;;6.67;5.50;;;3.90;83.90;;;;;;6183842;28;20397;-75
2021/04/16 06:24:45;;;;;;;5.03;4.00;;;4.00;83.40;;;;;;6185007;28;20051;-77
2021/04/16 06:27:50;;;;;;;5.78;4.28;;;4.00;82.40;;;;;;6183277;28;20050;-77
2021/04/16 06:30:57;;;;;;;8.10;4.78;;;4.00;81.20;;;;;;6185600;28;20058;-77
2021/04/16 06:34:00;;;;;;;5.03;4.47;;;4.10;81.10;;;;;;6189763;28;20091;-77
2021/04/16 06:37:04;;;;;;;7.60;5.03;;;4.10;81.30;;;;;;6183495;28;20072;-75
2021/04/16 06:40:09;;;;;;;7.25;5.63;;;4.30;81.40;;;;;;6184738;28;20853;-76
2021/04/16 06:43:12;;;;;;;6.38;4.30;;;4.40;80.40;;;;;;6183624;28;20065;-75
2021/04/16 06:46:22;;;;;;;5.43;4.28;;;4.60;80.00;;;;;;6177050;28;20563;-78
2021/04/16 06:49:25;;;;;;;6.90;5.05;;;4.70;79.10;;;;;;6179616;28;20196;-76
2021/04/16 06:52:32;;;;;;;5.40;4.43;;;4.70;76.80;;;;;;6178184;28;20047;-77
2021/04/16 06:55:43;;;;;;;7.43;4.97;;;4.70;77.70;;;;;;6178225;28;20137;-78
2021/04/16 06:58:51;;;;;;;5.13;4.15;;;4.80;77.60;;;;;;6178912;28;20147;-77
2021/04/16 07:01:57;;;;;;;5.95;4.75;;;4.90;77.40;;;;;;6179737;28;20149;-77
2021/04/16 07:05:00;;;;;;;4.75;3.50;;;5.00;76.70;;;;;;6180381;28;20047;-78
2021/04/16 07:08:03;;;;;;;5.47;4.78;;;5.00;76.40;;;;;;6181440;28;20126;-77
2021/04/16 07:11:19;;;;;;;7.95;4.65;;;5.10;75.70;;;;;;6180724;28;20158;-77
2021/04/16 07:14:26;;;;;;;5.85;3.95;;;5.20;75.20;;;;;;6196730;28;20046;-77
2021/04/16 07:17:43;;;;;;;6.32;3.85;;;5.20;74.60;;;;;;6201813;28;20057;-77
2021/04/16 07:20:44;;;;;;;6.95;4.38;;;5.30;74.60;;;;;;6201644;28;20138;-78
2021/04/16 07:23:49;;;;;;;4.78;4.35;;;5.50;74.30;;;;;;6201500;28;20627;-77
2021/04/16 07:26:54;;;;;;;8.43;4.10;;;5.70;73.30;;;;;;6202300;28;20128;-77
2021/04/16 07:29:58;;;;;;;6.38;5.65;;;5.70;71.90;;;;;;6202439;28;20046;-78
2021/04/16 07:33:00;;;;;;;3.65;3.38;;;5.80;72.30;;;;;;6202420;28;20050;-78
2021/04/16 07:36:21;;;;;;;4.72;4.15;;;6.00;71.70;;;;;;6201513;28;20449;-77
2021/04/16 07:39:29;;;;;;;5.10;4.60;;;5.90;70.40;;;;;;6201713;28;20060;-77
2021/04/16 07:42:40;;;;;;;5.60;4.75;;;5.80;70.90;;;;;;6202595;28;20575;-78
2021/04/16 07:45:47;;;;;;;8.73;4.63;;;5.70;70.90;;;;;;6201572;28;20065;-78
2021/04/16 07:48:49;;;;;;;32.55;6.93;;;5.60;71.40;;;;;;6202702;28;20050;-77
2021/04/16 07:51:55;;;;;;;5.25;4.80;;;5.50;71.70;;;;;;6200957;28;20544;-77
2021/04/16 07:55:19;;;;;;;5.45;4.93;;;5.40;71.90;;;;;;6203639;28;20046;-78
2021/04/16 07:58:24;;;;;;;4.45;3.95;;;5.40;72.60;;;;;;6202477;28;20102;-78
2021/04/16 08:01:30;;;;;;;5.43;4.60;;;5.40;72.50;;;;;;6201818;28;20070;-78
2021/04/16 08:04:35;;;;;;;4.72;4.32;;;5.40;72.70;;;;;;6202296;28;20054;-78
2021/04/16 08:07:36;;;;;;;11.38;8.00;;;5.50;72.60;;;;;;6202103;28;20060;-78
2021/04/16 08:10:38;;;;;;;6.15;4.70;;;5.50;72.40;;;;;;6201524;28;20503;-78
2021/04/16 08:13:56;;;;;;;5.40;4.90;;;5.50;72.40;;;;;;6202655;28;20475;-77
2021/04/16 08:17:00;;;;;;;10.25;9.35;;;5.50;72.90;;;;;;6200710;28;20098;-78
2021/04/16 08:20:22;;;;;;;7.18;6.57;;;5.50;72.90;;;;;;6200395;28;20065;-78
2021/04/16 08:23:25;;;;;;;7.88;4.85;;;5.60;72.80;;;;;;6199596;28;20162;-77
2021/04/16 08:26:31;;;;;;;6.05;4.15;;;5.50;73.30;;;;;;6200056;28;20801;-77
2021/04/16 08:29:36;;;;;;;4.90;4.50;;;5.50;73.10;;;;;;6203244;28;20066;-78
2021/04/16 08:32:44;;;;;;;5.85;5.25;;;5.60;72.90;;;;;;6203612;28;20047;-78
2021/04/16 08:35:50;;;;;;;5.57;5.07;;;5.70;72.50;;;;;;6203281;28;20061;-78
2021/04/16 08:38:57;;;;;;;6.97;6.28;;;5.90;71.90;;;;;;6202964;28;20054;-78
2021/04/16 08:42:02;;;;;;;5.47;5.07;;;6.20;71.60;;;;;;6202858;28;20131;-78
2021/04/16 08:45:09;;;;;;;5.40;4.90;;;6.40;70.90;;;;;;6203483;28;20138;-77
2021/04/16 08:48:19;;;;;;;8.70;5.88;;;6.70;70.50;;;;;;6202830;28;20042;-77
2021/04/16 08:51:26;;;;;;;6.65;5.72;;;6.90;69.00;;;;;;6201725;28;20096;-78
2021/04/16 08:54:30;;;;;;;5.38;4.65;;;7.20;68.00;;;;;;6203554;28;20046;-78
2021/04/16 08:57:40;;;;;;;7.07;5.00;;;7.50;66.80;;;;;;6203900;28;20066;-78
2021/04/16 09:00:44;;;;;;;6.45;5.15;;;7.80;66.20;;;;;;6202879;28;20046;-78
2021/04/16 09:03:49;;;;;;;6.50;4.70;;;8.20;64.50;;;;;;6202920;28;20084;-78
2021/04/16 09:06:57;;;;;;;5.22;4.72;;;8.40;63.90;;;;;;6204826;28;20054;-78
2021/04/16 09:10:00;;;;;;;6.65;5.25;;;8.80;63.10;;;;;;6205195;28;20066;-77
2021/04/16 09:13:06;;;;;;;5.28;4.57;;;9.00;61.90;;;;;;6203095;28;20108;-78
2021/04/16 09:16:37;;;;;;;7.50;5.50;;;8.80;61.70;;;;;;6201795;28;20469;-78
2021/04/16 09:19:59;;;;;;;5.47;4.95;;;8.60;61.70;;;;;;6202047;28;20093;-78
2021/04/16 09:23:04;;;;;;;7.88;4.75;;;8.50;62.50;;;;;;6206733;28;20077;-77
2021/04/16 09:26:06;;;;;;;5.47;5.07;;;8.40;62.90;;;;;;6207479;28;20062;-78
2021/04/16 09:29:08;;;;;;;5.55;4.97;;;8.80;62.50;;;;;;6207048;28;20570;-77
2021/04/16 09:32:39;;;;;;;5.35;4.90;;;9.40;60.90;;;;;;6198902;28;20078;-77
2021/04/16 09:35:58;;;;;;;5.65;4.95;;;10.10;59.20;;;;;;6202273;28;20467;-77
2021/04/16 09:39:12;;;;;;;6.75;5.85;;;10.60;57.20;;;;;;6199904;28;20542;-77
2021/04/16 09:42:36;;;;;;;4.88;4.35;;;10.70;55.00;;;;;;6197755;28;20058;-77
2021/04/16 09:45:44;;;;;;;6.18;4.60;;;10.70;54.60;;;;;;6198119;28;20047;-77
2021/04/16 09:48:48;;;;;;;5.60;5.18;;;10.00;55.30;;;;;;6198203;28;20172;-77
2021/04/16 09:51:51;;;;;;;4.47;4.07;;;9.50;56.80;;;;;;6197862;28;20077;-77
2021/04/16 09:54:54;;;;;;;5.57;5.07;;;9.20;57.30;;;;;;6198244;28;20047;-77
2021/04/16 09:57:55;;;;;;;5.10;4.60;;;9.10;58.60;;;;;;6198246;28;20050;-77
2021/04/16 10:01:07;;;;;;;5.20;4.72;;;9.20;58.40;;;;;;6199079;28;20077;-77
2021/04/16 10:04:13;;;;;;;4.70;4.30;;;9.30;58.20;;;;;;6198512;28;20046;-77
2021/04/16 10:07:16;;;;;;;6.05;5.55;;;9.10;56.70;;;;;;6198809;28;20530;-78
2021/04/16 10:10:22;;;;;;;6.15;5.63;;;8.60;57.60;;;;;;6198651;28;20138;-77
2021/04/16 10:13:30;;;;;;;4.78;4.38;;;8.50;59.10;;;;;;6189755;28;20572;-77
2021/04/16 10:16:31;;;;;;;;;;;8.50;58.80;;;;;;6174202;28;20405;-77
2021/04/16 10:19:34;;;;;;;5.57;4.72;;;8.50;59.40;;;;;;6182605;28;20294;-77
2021/04/16 10:22:37;;;;;;;5.55;4.35;;;8.40;59.30;;;;;;6198677;28;20085;-77
2021/04/16 10:26:45;;;;;;;5.45;5.05;;;8.30;58.90;;;;;;6197502;28;20080;-78
2021/04/16 12:39:02;;;;;;;4.43;4.03;;;9.70;54.40;;;;;;6148647;29;20784;-78
2021/04/16 12:42:06;;;;;;;6.95;4.78;;;9.90;53.80;;;;;;6152579;28;20077;-78
2021/04/16 12:45:09;;;;;;;6.32;4.40;;;10.10;53.10;;;;;;6199818;28;20046;-77
2021/04/16 12:48:12;;;;;;;4.75;4.07;;;9.80;53.10;;;;;;6199127;28;20129;-77
2021/04/16 12:51:14;;;;;;;4.32;4.03;;;9.70;54.20;;;;;;6198920;28;20111;-77
2021/04/16 12:54:15;;;;;;;5.40;4.55;;;9.60;54.10;;;;;;6197745;28;20072;-76
2021/04/16 12:57:21;;;;;;;4.82;4.32;;;9.40;54.70;;;;;;6198398;28;20508;-77
2021/04/16 13:00:24;;;;;;;4.75;4.18;;;9.40;54.80;;;;;;6198296;28;20042;-76
2021/04/16 13:03:30;;;;;;;5.03;4.07;;;9.30;55.10;;;;;;6198402;28;20054;-76
2021/04/16 13:06:34;;;;;;;3.70;3.40;;;9.10;54.40;;;;;;6198565;28;20128;-77
2021/04/16 13:09:36;;;;;;;3.83;2.97;;;9.00;54.80;;;;;;6197912;28;20138;-76
2021/04/16 13:12:38;;;;;;;3.03;2.83;;;9.00;54.60;;;;;;6198039;28;20053;-76
2021/04/16 13:15:39;;;;;;;3.42;2.85;;;9.00;53.50;;;;;;6197177;28;20056;-77
2021/04/16 13:18:43;;;;;;;2.55;2.35;;;8.90;53.20;;;;;;6198260;28;20125;-76
2021/04/16 13:21:44;;;;;;;5.28;4.80;;;8.90;53.50;;;;;;6197745;28;20046;-78
2021/04/16 13:24:48;;;;;;;2.88;2.55;;;8.90;53.50;;;;;;6197882;28;20047;-77
2021/04/16 13:27:50;;;;;;;3.65;2.20;;;9.00;52.90;;;;;;6197825;28;20050;-77
2021/04/16 13:30:52;;;;;;;3.15;2.58;;;9.20;52.20;;;;;;6198448;28;20501;-77
2021/04/16 13:33:54;;;;;;;3.42;2.78;;;9.30;51.90;;;;;;6198078;28;20142;-76
2021/04/16 13:36:56;;;;;;;7.70;2.20;;;9.30;51.60;;;;;;6197557;28;20130;-76
2021/04/16 13:39:57;;;;;;;3.60;2.47;;;9.30;51.70;;;;;;6197898;28;20415;-77
2021/04/16 13:42:59;;;;;;;3.72;2.22;;;9.30;51.10;;;;;;6198315;28;20064;-76
2021/04/16 13:46:02;;;;;;;3.75;1.85;;;9.30;52.90;;;;;;6197611;28;20074;-75
2021/04/16 13:49:06;;;;;;;1.58;1.48;;;9.20;51.60;;;;;;6198028;28;20133;-76
2021/04/16 13:52:08;;;;;;;2.55;2.35;;;9.20;51.90;;;;;;6197779;28;20073;-76
2021/04/16 13:55:12;;;;;;;1.73;1.60;;;9.30;51.50;;;;;;6197822;28;20047;-76
2021/04/16 13:58:14;;;;;;;1.70;1.60;;;9.30;51.10;;;;;;6198051;28;20057;-75
2021/04/16 14:01:16;;;;;;;2.90;2.20;;;9.20;51.60;;;;;;6198671;28;20054;-77
2021/04/16 14:04:22;;;;;;;3.88;3.17;;;9.30;51.60;;;;;;6197423;28;20121;-77
2021/04/16 14:07:24;;;;;;;2.88;2.67;;;9.20;51.20;;;;;;6200246;28;20050;-76
2021/04/16 14:10:26;;;;;;;9.75;4.40;;;9.10;51.70;;;;;;6202917;28;20050;-76
2021/04/16 14:13:29;;;;;;;2.50;2.30;;;9.10;51.80;;;;;;6202125;28;20050;-76
2021/04/16 14:16:33;;;;;;;2.70;2.50;;;9.10;51.60;;;;;;6201576;28;20487;-76
2021/04/16 14:19:42;;;;;;;2.33;2.13;;;9.10;51.90;;;;;;6198903;28;20058;-75
2021/04/16 14:22:45;;;;;;;3.05;2.00;;;9.20;51.70;;;;;;6202374;28;20054;-76
2021/04/16 14:25:47;;;;;;;5.90;3.22;;;9.20;51.30;;;;;;6201364;28;20066;-76
2021/04/16 14:28:49;;;;;;;2.10;1.90;;;9.10;52.00;;;;;;6250938;22;20069;-77
2021/04/16 14:31:50;;;;;;;2.55;1.75;;;9.10;51.70;;;;;;6249175;28;20124;-77
2021/04/16 14:34:52;;;;;;;2.35;2.15;;;9.00;51.80;;;;;;6248297;28;20076;-77
2021/04/16 14:37:54;;;;;;;6.32;4.38;;;8.90;52.20;;;;;;6249054;28;20072;-78
2021/04/16 14:40:55;;;;;;;14.02;12.85;;;8.90;52.30;;;;;;6248458;28;20749;-77
2021/04/16 14:43:58;;;;;;;2.50;2.08;;;8.90;52.80;;;;;;6248744;28;20046;-78
2021/04/16 14:46:59;;;;;;;2.30;2.10;;;8.90;52.70;;;;;;6248790;28;20084;-77
2021/04/16 14:50:00;;;;;;;4.50;2.20;;;8.90;53.50;;;;;;6248212;28;20077;-78
2021/04/16 14:53:04;;;;;;;6.38;3.47;;;8.90;53.30;;;;;;6248065;28;20079;-77
2021/04/16 14:56:08;;;;;;;12.40;7.47;;;9.00;53.40;;;;;;6247310;28;20445;-77
2021/04/16 14:59:19;;;;;;;5.32;2.88;;;9.10;53.00;;;;;;6248164;28;20132;-76
2021/04/16 15:02:20;;;;;;;2.72;2.53;;;9.10;52.20;;;;;;6247963;28;20056;-77
2021/04/16 15:05:22;;;;;;;2.45;2.20;;;9.00;52.20;;;;;;6247727;28;20188;-76
2021/04/16 15:08:26;;;;;;;4.93;2.35;;;8.90;52.20;;;;;;6248257;28;20510;-77
2021/04/16 15:11:34;;;;;;;2.35;2.15;;;8.70;52.60;;;;;;6248178;28;20144;-77
2021/04/16 15:14:36;;;;;;;;;;;8.60;53.40;;;;;;6248445;28;20069;-76
2021/04/16 15:17:38;;;;;;;1.80;1.67;;;8.50;53.40;;;;;;6247460;28;19921;-77
2021/04/16 15:20:41;;;;;;;2.53;2.03;;;8.50;53.50;;;;;;6247047;28;20525;-77
2021/04/16 15:23:43;;;;;;;2.20;2.05;;;8.50;53.40;;;;;;6247370;28;20041;-77
2021/04/16 15:26:44;;;;;;;2.38;2.10;;;8.50;53.90;;;;;;6247834;28;20430;-76
2021/04/16 15:29:50;;;;;;;2.00;1.60;;;8.30;54.60;;;;;;6247485;28;20049;-77
2021/04/16 15:32:52;;;;;;;1.80;1.70;;;8.30;55.30;;;;;;6247402;28;20128;-77
2021/04/16 15:46:14;;;;;;;1.90;1.80;;;8.10;56.30;;;;;;6247060;28;20674;-77
2021/04/16 15:49:17;;;;;;;2.63;2.42;;;8.10;56.30;;;;;;6247138;28;20045;-81
2021/04/16 15:52:18;;;;;;;1.70;1.60;;;8.10;56.80;;;;;;6247409;28;20128;-77
2021/04/16 15:55:20;;;;;;;1.90;1.33;;;8.10;56.80;;;;;;6246700;28;20156;-77
2021/04/16 15:58:26;;;;;;;2.38;2.17;;;8.10;56.80;;;;;;6247722;28;20136;-77
2021/04/16 16:01:28;;;;;;;3.35;3.13;;;8.20;57.60;;;;;;6246833;28;20045;-78
2021/04/16 16:04:30;;;;;;;2.33;2.08;;;8.20;57.10;;;;;;6246009;28;20149;-78
2021/04/16 16:07:31;;;;;;;3.92;2.15;;;8.30;57.10;;;;;;6247155;28;20089;-77
2021/04/16 16:10:34;;;;;;;2.22;1.88;;;8.30;57.00;;;;;;6246744;28;20081;-77
2021/04/16 16:13:37;;;;;;;3.78;1.65;;;8.30;56.90;;;;;;6246066;28;20515;-77
2021/04/16 16:16:41;;;;;;;2.83;2.50;;;8.30;57.00;;;;;;6246439;28;20171;-77
2021/04/16 16:19:43;;;;;;;3.20;2.95;;;8.40;57.70;;;;;;6242311;28;20471;-77
2021/04/16 16:22:45;;;;;;;6.22;4.10;;;8.40;57.10;;;;;;6247218;28;20151;-78
2021/04/16 16:25:47;;;;;;;4.32;2.70;;;8.30;61.50;;;;;;6246552;28;20433;-77
2021/04/16 16:28:51;;;;;;;1.80;1.70;;;8.30;57.90;;;;;;6246106;28;20053;-77
2021/04/16 16:31:58;;;;;;;2.55;2.35;;;8.30;57.40;;;;;;6245937;28;20069;-77
2021/04/16 16:34:59;;;;;;;1.98;1.88;;;8.10;57.30;;;;;;6245368;28;20041;-77
2021/04/16 16:38:00;;;;;;;5.30;3.42;;;8.10;57.90;;;;;;6247244;28;20474;-77
2021/04/16 16:41:02;;;;;;;3.15;2.90;;;8.10;57.90;;;;;;6237785;28;20045;-77
2021/04/16 16:44:07;;;;;;;2.40;2.15;;;8.00;58.10;;;;;;6247108;28;20181;-77
2021/04/16 16:47:11;;;;;;;2.80;1.52;;;8.00;58.40;;;;;;6248543;28;20049;-77
2021/04/16 16:50:21;;;;;;;4.18;2.67;;;8.00;58.20;;;;;;6247189;28;20045;-78
2021/04/16 16:53:23;;;;;;;8.20;3.42;;;7.90;66.20;;;;;;6247358;28;20132;-77
2021/04/16 16:56:28;;;;;;;3.10;1.90;;;8.10;66.60;;;;;;6246387;28;20073;-78
2021/04/16 16:59:33;;;;;;;2.25;1.65;;;8.60;65.70;;;;;;6248317;28;20085;-77
2021/04/16 17:02:35;;;;;;;2.05;1.88;;;8.70;59.80;;;;;;6248289;28;20079;-77
2021/04/16 17:05:36;;;;;;;3.25;2.58;;;8.50;58.30;;;;;;6247133;28;20050;-78
2021/04/16 17:08:38;;;;;;;2.17;1.77;;;8.20;58.60;;;;;;6250200;28;20065;-79
2021/04/16 17:11:41;;;;;;;6.43;4.95;;;8.10;59.20;;;;;;6247263;28;20084;-77
2021/04/16 17:14:44;;;;;;;2.15;1.92;;;7.90;59.80;;;;;;6248969;28;20095;-77
2021/04/16 17:17:46;;;;;;;3.40;2.70;;;7.90;60.10;;;;;;6248473;28;20056;-76
2021/04/16 17:20:47;;;;;;;2.80;2.30;;;7.90;60.40;;;;;;6247733;28;20073;-76
2021/04/16 17:23:49;;;;;;;3.38;3.08;;;7.80;60.40;;;;;;6247831;28;20120;-77
2021/04/16 17:26:54;;;;;;;3.25;2.95;;;7.70;60.80;;;;;;6248857;28;20123;-77
2021/04/16 17:29:56;;;;;;;3.40;2.85;;;7.70;61.20;;;;;;6248482;28;20548;-77
2021/04/16 17:33:00;;;;;;;2.90;2.67;;;7.70;61.40;;;;;;6248404;28;20049;-77
2021/04/16 17:36:01;;;;;;;3.50;2.95;;;7.60;60.90;;;;;;6248970;28;20076;-77
2021/04/16 17:39:05;;;;;;;2.58;2.38;;;7.60;61.40;;;;;;6249288;28;20080;-77
2021/04/16 17:42:26;;;;;;;3.38;3.03;;;7.60;61.50;;;;;;6241904;28;20052;-77
2021/04/16 17:45:30;;;;;;;3.60;2.63;;;7.60;61.60;;;;;;6228598;28;20167;-77
2021/04/16 17:48:33;;;;;;;2.97;2.67;;;7.50;61.60;;;;;;6228428;28;20069;-77
2021/04/16 17:51:35;;;;;;;7.00;2.75;;;7.60;61.90;;;;;;6228930;28;20132;-77
2021/04/16 17:54:37;;;;;;;3.67;3.38;;;7.60;61.50;;;;;;6228686;28;20049;-76
2021/04/16 17:57:38;;;;;;;3.13;2.55;;;7.50;61.60;;;;;;6228872;28;20069;-76
2021/04/16 18:00:39;;;;;;;3.10;2.90;;;7.50;62.20;;;;;;6230181;28;20100;-76
2021/04/16 18:03:42;;;;;;;2.70;2.50;;;7.50;62.00;;;;;;6228212;28;20065;-76
2021/04/16 18:06:45;;;;;;;2.83;2.63;;;7.50;62.00;;;;;;6228918;28;20466;-76
2021/04/16 18:09:46;;;;;;;4.22;3.90;;;7.50;62.30;;;;;;6227118;28;20052;-76
2021/04/16 18:12:48;;;;;;;3.30;2.60;;;7.50;62.50;;;;;;6230125;28;20698;-76
2021/04/16 18:15:49;;;;;;;6.80;3.78;;;7.40;62.60;;;;;;6251430;28;20125;-76
2021/04/16 18:18:52;;;;;;;3.40;3.03;;;7.40;63.10;;;;;;6251285;28;20175;-76
2021/04/16 18:21:54;;;;;;;5.68;3.25;;;7.50;62.80;;;;;;6250026;28;20076;-76
2021/04/16 18:24:57;;;;;;;4.30;2.70;;;7.40;63.40;;;;;;6249537;28;20128;-76
2021/04/16 18:27:59;;;;;;;3.92;2.22;;;7.40;63.10;;;;;;6249088;28;20053;-76
2021/04/16 18:31:03;;;;;;;3.20;2.55;;;7.40;63.30;;;;;;6249658;28;20583;-76